Home   Weather   India   Pali   Past weeks
Flag for India

Past Weather in Pali, Rajasthan, India — Yesterday and Last 2 Weeks

Currently: 57 °F. Haze. (Weather station: Jaipur / Sanganer, India). See more current weather

Past Weather in Pali — Graph

°F

Pali Temperature Yesterday

Maximum temperature yesterday: 79 °F (at 1:30 pm)
Minimum temperature yesterday: 54 °F (at 7:30 am)
Average temperature yesterday: 67 °F

High & Low Weather Summary for the Past Weeks

 TemperatureHumidityPressure
High84 °F (Nov 14, 2:00 pm)83% (Nov 16, 3:00 am)30.33 "Hg (Nov 16, 3:00 am)
Low52 °F (Nov 24, 7:00 am)14% (Nov 23, 2:30 pm)29.86 "Hg (Nov 27, 3:30 pm)
Average69 °F49%30.01 "Hg
* Reported Nov 14 2:30 am — Nov 29 3:00 am, Pali. Weather by CustomWeather, © 2022

Note: Actual official high and low records may vary slightly from our data, if they occured in-between our weather recording intervals... More about our weather records

Pali Weather History for the Previous 24 Hours

Scroll right to see more
 ConditionsComfort  
Time TempWeatherWind HumidityBarometerVisibility
3:00 am
Tue, Nov 29
57 °FHaze.No wind72%29.98 "Hg2 mi
2:30 am59 °FHaze.1 mph72%29.98 "Hg2 mi
2:00 am59 °FHaze.2 mph72%29.98 "Hg2 mi
1:30 am59 °FHaze.2 mph72%29.98 "Hg2 mi
1:00 am59 °FHaze.2 mph72%30.01 "Hg2 mi
12:30 am61 °FHaze.2 mph68%30.01 "Hg2 mi
12:00 am61 °FHaze.1 mph68%30.01 "Hg2 mi
11:30 pm
Mon, Nov 28
61 °FHaze.No wind63%30.01 "Hg2 mi
11:00 pm63 °FHaze.2 mph64%30.01 "Hg2 mi
10:30 pm63 °FHaze.2 mph64%30.01 "Hg2 mi
10:00 pm63 °FHaze.3 mph68%30.01 "Hg2 mi
9:30 pm63 °FHaze.1 mph68%30.01 "Hg2 mi
9:00 pm64 °FHaze.1 mph64%29.98 "Hg2 mi
8:30 pm66 °FHaze.No wind60%29.98 "Hg2 mi
8:00 pm66 °FHaze.No wind60%29.98 "Hg2 mi
7:30 pm66 °FHaze.No wind60%29.98 "Hg2 mi
6:30 pm70 °FHaze.No wind50%29.95 "Hg2 mi
6:00 pm72 °FHaze.2 mph47%29.95 "Hg2 mi
5:30 pm75 °FHaze.2 mph39%29.92 "Hg2 mi
5:00 pm77 °FHaze.2 mph36%29.95 "Hg2 mi
4:00 pm79 °FHaze.2 mph32%29.95 "Hg3 mi
3:30 pm79 °FHaze.2 mph34%29.95 "Hg3 mi
3:00 pm79 °FHaze.2 mph34%29.95 "Hg3 mi
2:00 pm79 °FHaze.3 mph32%29.95 "Hg2 mi
1:30 pm79 °FHaze.3 mph34%29.95 "Hg2 mi
1:00 pm77 °FPleasantly warm.3 mph36%29.98 "Hg2 mi
12:30 pm77 °FHaze.5 mph36%29.98 "Hg2 mi
12:00 pm77 °FHaze.3 mph39%29.98 "Hg2 mi
11:30 am77 °FHaze.3 mph36%30.01 "Hg2 mi
11:00 am75 °FHaze.3 mph41%30.01 "Hg2 mi
10:30 am73 °FHaze.5 mph41%30.01 "Hg2 mi
10:00 am70 °FHaze.3 mph50%30.01 "Hg2 mi
9:30 am68 °FHaze.7 mph53%30.01 "Hg2 mi
9:00 am68 °FHaze.3 mph60%29.98 "Hg1 mi
8:30 am63 °FHaze.No wind77%29.98 "Hg1 mi
7:30 am54 °FHaze.2 mph77%29.95 "Hg1 mi
7:00 am55 °FHaze.No wind77%29.95 "Hg1 mi
6:30 am55 °FHaze.No wind77%29.92 "Hg1 mi
5:00 am55 °FHaze.No wind77%29.89 "Hg1 mi
4:30 am57 °FHaze.No wind72%29.89 "Hg1 mi
4:00 am57 °FHaze.No wind72%29.89 "Hg1 mi
Weather by CustomWeather, © 2022

See weather overview